createdAt,value
2022-07-30T00:00:26.189Z,10.69
2022-07-30T00:01:28.891Z,6.71
2022-07-30T00:02:31.530Z,7.75
2022-07-30T00:03:34.297Z,10.11
2022-07-30T00:04:37.169Z,9.51
2022-07-30T00:05:39.846Z,10.48
2022-07-30T00:06:42.813Z,6.17
2022-07-30T00:07:45.387Z,7.81
2022-07-30T00:08:48.049Z,9.61
2022-07-30T00:09:50.546Z,6.40
2022-07-30T00:10:53.493Z,10.72
2022-07-30T00:11:56.068Z,24.97
2022-07-30T00:12:58.687Z,15.50
2022-07-30T00:14:01.350Z,16.84
2022-07-30T00:15:03.883Z,12.41
2022-07-30T00:16:06.838Z,6.49
2022-07-30T00:17:09.530Z,8.25
2022-07-30T00:18:12.129Z,9.29
2022-07-30T00:19:16.071Z,8.88
2022-07-30T00:20:19.381Z,16.45
2022-07-30T00:21:35.745Z,10.29
2022-07-30T00:22:28.183Z,5.76
2022-07-30T00:23:31.048Z,8.78
2022-07-30T00:24:33.614Z,10.99
2022-07-30T00:25:36.179Z,7.83
2022-07-30T00:26:39.262Z,8.02
2022-07-30T00:27:41.928Z,8.00
2022-07-30T00:28:44.453Z,6.39
2022-07-30T00:29:47.063Z,7.54
2022-07-30T00:30:54.933Z,5.10
2022-07-30T00:31:54.556Z,8.38
2022-07-30T00:32:57.182Z,7.38
2022-07-30T00:33:59.782Z,6.44
2022-07-30T00:35:02.353Z,6.69
2022-07-30T00:36:05.258Z,4.09
2022-07-30T00:37:07.895Z,7.08
2022-07-30T00:38:10.463Z,9.95
2022-07-30T00:39:13.137Z,7.00
2022-07-30T00:40:16.636Z,5.02
2022-07-30T00:41:19.495Z,6.89
2022-07-30T00:42:22.272Z,13.82
2022-07-30T00:43:24.936Z,5.40
2022-07-30T00:44:27.466Z,9.15
2022-07-30T00:45:30.071Z,10.70
2022-07-30T00:46:33.870Z,9.73
2022-07-30T00:47:36.435Z,9.30
2022-07-30T00:48:39.167Z,9.20
2022-07-30T00:49:44.368Z,7.46
2022-07-30T00:50:46.755Z,6.98
2022-07-30T00:51:51.209Z,5.31
2022-07-30T00:52:53.772Z,7.28
2022-07-30T00:53:56.339Z,6.56
2022-07-30T00:54:59.069Z,11.13
2022-07-30T00:56:01.699Z,8.74
2022-07-30T00:57:04.246Z,9.25
2022-07-30T00:58:06.843Z,9.64
2022-07-30T00:59:09.378Z,6.14
2022-07-30T01:00:12.419Z,5.78
2022-07-30T01:01:15.528Z,6.53
2022-07-30T01:02:18.316Z,6.37
2022-07-30T01:03:21.424Z,6.16
2022-07-30T01:04:23.959Z,6.43
2022-07-30T01:05:26.623Z,4.17
2022-07-30T01:06:29.703Z,7.81
2022-07-30T01:07:32.226Z,8.00
2022-07-30T01:08:34.837Z,6.54
2022-07-30T01:09:37.386Z,8.36
2022-07-30T01:10:40.381Z,6.56
2022-07-30T01:11:42.944Z,5.81
2022-07-30T01:12:45.618Z,7.17
2022-07-30T01:13:48.355Z,11.31
2022-07-30T01:14:51.060Z,7.49
2022-07-30T01:15:53.725Z,9.80
2022-07-30T01:16:56.808Z,8.63
2022-07-30T01:17:59.698Z,6.06
2022-07-30T01:19:02.243Z,5.73
2022-07-30T01:20:05.027Z,7.05
2022-07-30T01:21:07.685Z,9.33
2022-07-30T01:22:10.666Z,5.48
2022-07-30T01:23:13.235Z,3.88
2022-07-30T01:24:15.939Z,9.01
2022-07-30T01:25:18.565Z,5.37
2022-07-30T01:26:22.282Z,10.72
2022-07-30T01:27:24.928Z,8.87
2022-07-30T01:28:27.560Z,7.29
2022-07-30T01:29:30.303Z,4.85
2022-07-30T01:30:32.938Z,6.08
2022-07-30T01:31:37.384Z,8.79
2022-07-30T01:32:40.116Z,6.79
2022-07-30T01:33:42.688Z,4.10
2022-07-30T01:34:45.251Z,13.21
2022-07-30T01:35:47.845Z,11.32
2022-07-30T01:36:51.134Z,8.56
2022-07-30T01:37:53.789Z,8.45
2022-07-30T01:38:56.440Z,7.74
2022-07-30T01:39:59.007Z,8.21
2022-07-30T01:41:01.779Z,5.42
2022-07-30T01:42:05.063Z,7.33
2022-07-30T01:43:08.157Z,8.08
2022-07-30T01:44:10.912Z,7.46
2022-07-30T01:45:13.480Z,5.91
2022-07-30T01:46:17.915Z,5.79
2022-07-30T01:47:20.607Z,7.07
2022-07-30T01:48:23.092Z,4.99
2022-07-30T01:49:26.143Z,8.94
2022-07-30T01:50:29.490Z,6.36
2022-07-30T01:51:37.326Z,5.92
2022-07-30T01:52:36.570Z,8.65
2022-07-30T01:53:39.135Z,6.43
2022-07-30T01:54:41.706Z,6.88
2022-07-30T01:55:44.388Z,6.10
2022-07-30T01:56:47.353Z,6.74
2022-07-30T01:57:50.020Z,15.88
2022-07-30T01:58:52.684Z,7.70
2022-07-30T01:59:56.276Z,8.70
2022-07-30T02:00:59.324Z,10.98
2022-07-30T02:02:01.934Z,11.94
2022-07-30T02:03:04.898Z,9.07
2022-07-30T02:04:07.466Z,8.71
2022-07-30T02:05:09.988Z,10.71
2022-07-30T02:06:13.484Z,4.61
2022-07-30T02:07:16.498Z,9.04
2022-07-30T02:08:19.168Z,9.56
2022-07-30T02:09:21.731Z,20.97
2022-07-30T02:10:24.810Z,16.59
2022-07-30T02:11:27.379Z,22.04
2022-07-30T02:12:31.747Z,15.64
2022-07-30T02:13:34.356Z,14.10
2022-07-30T02:14:36.928Z,10.78
2022-07-30T02:15:39.552Z,13.41
2022-07-30T02:16:42.701Z,6.86
2022-07-30T02:17:45.652Z,14.43
2022-07-30T02:18:49.529Z,13.26
2022-07-30T02:19:52.930Z,13.71
2022-07-30T02:20:56.832Z,11.95
2022-07-30T02:21:59.503Z,13.61
2022-07-30T02:23:03.723Z,16.10
2022-07-30T02:24:06.575Z,16.39
2022-07-30T02:25:09.149Z,18.66
2022-07-30T02:26:13.556Z,24.31
2022-07-30T02:27:16.123Z,19.92
2022-07-30T02:28:18.688Z,22.12
2022-07-30T02:29:21.357Z,19.90
2022-07-30T02:30:24.441Z,13.84
2022-07-30T02:31:27.130Z,21.93
2022-07-30T02:32:30.185Z,20.67
2022-07-30T02:33:32.814Z,13.44
2022-07-30T02:34:35.421Z,14.41
2022-07-30T02:35:37.988Z,14.17
2022-07-30T02:36:40.718Z,15.53
2022-07-30T02:37:44.486Z,16.88
2022-07-30T02:38:47.335Z,17.22
2022-07-30T02:39:50.000Z,21.33
2022-07-30T02:40:52.940Z,17.74
2022-07-30T02:41:55.906Z,16.54
2022-07-30T02:42:58.829Z,16.42
2022-07-30T02:44:02.235Z,13.76
2022-07-30T02:45:05.193Z,16.02
2022-07-30T02:46:08.475Z,20.50
2022-07-30T02:47:11.162Z,15.75
2022-07-30T02:48:35.068Z,13.23
2022-07-30T02:49:18.392Z,14.12
2022-07-30T02:50:23.045Z,12.12
2022-07-30T02:51:25.728Z,15.17
2022-07-30T02:52:28.277Z,10.61
2022-07-30T02:53:30.843Z,11.59
2022-07-30T02:54:33.413Z,11.57
2022-07-30T02:55:36.080Z,13.38
2022-07-30T02:56:39.160Z,17.09
2022-07-30T02:57:43.358Z,10.95
2022-07-30T02:58:46.449Z,11.96
2022-07-30T02:59:49.111Z,13.51
2022-07-30T03:00:52.015Z,17.78
2022-07-30T03:01:54.742Z,11.82
2022-07-30T03:02:57.637Z,14.31
2022-07-30T03:04:00.317Z,16.59
2022-07-30T03:05:02.992Z,16.04
2022-07-30T03:06:05.962Z,9.56
2022-07-30T03:07:09.162Z,9.15
2022-07-30T03:08:12.018Z,9.47
2022-07-30T03:09:16.884Z,6.00
2022-07-30T03:10:20.625Z,7.03
2022-07-30T03:11:23.710Z,6.61
2022-07-30T03:12:26.326Z,6.03
2022-07-30T03:13:28.932Z,8.33
2022-07-30T03:14:31.622Z,10.46
2022-07-30T03:15:34.129Z,8.75
2022-07-30T03:16:38.817Z,6.70
2022-07-30T03:17:41.759Z,12.52
2022-07-30T03:18:44.328Z,6.08
2022-07-30T03:19:46.998Z,10.47
2022-07-30T03:20:50.036Z,9.71
2022-07-30T03:21:52.745Z,10.64
2022-07-30T03:22:55.332Z,10.40
2022-07-30T03:23:57.883Z,7.99
2022-07-30T03:25:00.555Z,4.65
2022-07-30T03:26:04.366Z,5.53
2022-07-30T03:27:06.971Z,5.69
2022-07-30T03:28:09.581Z,3.81
2022-07-30T03:29:12.264Z,6.95
2022-07-30T03:30:15.952Z,7.74
2022-07-30T03:31:18.641Z,5.36
2022-07-30T03:32:21.309Z,5.80
2022-07-30T03:33:38.028Z,10.76
2022-07-30T03:34:30.312Z,4.54
2022-07-30T03:35:32.929Z,7.55
2022-07-30T03:36:36.593Z,12.86
2022-07-30T03:37:39.236Z,11.21
2022-07-30T03:38:41.904Z,12.44
2022-07-30T03:39:44.581Z,13.35
2022-07-30T03:40:47.544Z,7.51
2022-07-30T03:41:50.174Z,6.57
2022-07-30T03:42:53.508Z,12.46
2022-07-30T03:43:56.481Z,9.81
2022-07-30T03:44:59.170Z,7.41
2022-07-30T03:46:02.112Z,7.46
2022-07-30T03:47:05.357Z,9.13
2022-07-30T03:48:08.490Z,7.51
2022-07-30T03:49:11.096Z,8.82
2022-07-30T03:50:14.948Z,5.69
2022-07-30T03:51:17.472Z,10.70
2022-07-30T03:52:20.111Z,7.85
2022-07-30T03:53:22.752Z,8.17
2022-07-30T03:54:25.328Z,18.34
2022-07-30T03:55:27.995Z,44.22
2022-07-30T03:56:30.972Z,27.15
2022-07-30T03:57:33.632Z,43.25
2022-07-30T03:58:36.276Z,35.55
2022-07-30T03:59:38.879Z,30.72
2022-07-30T04:00:41.948Z,51.71
2022-07-30T04:01:44.977Z,28.99
2022-07-30T04:02:47.619Z,19.50
2022-07-30T04:03:50.206Z,10.40
2022-07-30T04:04:52.935Z,7.85
2022-07-30T04:05:55.458Z,6.32
2022-07-30T04:06:58.443Z,6.66
2022-07-30T04:08:01.249Z,5.93
2022-07-30T04:09:03.917Z,4.53
2022-07-30T04:10:06.892Z,7.77
2022-07-30T04:11:09.459Z,10.81
2022-07-30T04:12:12.332Z,5.81
2022-07-30T04:13:14.923Z,8.97
2022-07-30T04:14:18.098Z,10.30
2022-07-30T04:16:05.895Z,10.85
2022-07-30T04:16:41.604Z,6.63
2022-07-30T04:17:30.461Z,4.44
2022-07-30T04:18:33.403Z,5.91
2022-07-30T04:19:36.035Z,5.74
2022-07-30T04:20:38.814Z,5.79
2022-07-30T04:21:42.088Z,10.72
2022-07-30T04:22:45.993Z,8.80
2022-07-30T04:24:02.261Z,6.67
2022-07-30T04:24:53.375Z,11.52
2022-07-30T04:25:55.946Z,7.24
2022-07-30T04:26:59.403Z,8.76
2022-07-30T04:28:03.717Z,11.25
2022-07-30T04:29:06.921Z,9.31
2022-07-30T04:30:10.467Z,9.58
2022-07-30T04:31:13.124Z,11.39
2022-07-30T04:32:15.874Z,14.14
2022-07-30T04:33:18.515Z,12.57
2022-07-30T04:34:21.086Z,9.47
2022-07-30T04:35:49.873Z,9.17
2022-07-30T04:36:28.372Z,12.56
2022-07-30T04:37:30.934Z,10.85
2022-07-30T04:38:33.953Z,11.15
2022-07-30T04:39:36.583Z,6.05
2022-07-30T04:40:39.390Z,6.17
2022-07-30T04:41:49.515Z,7.27
2022-07-30T04:42:46.738Z,11.67
2022-07-30T04:43:49.307Z,4.61
2022-07-30T04:44:52.183Z,6.91
2022-07-30T04:45:54.811Z,13.19
2022-07-30T04:46:58.324Z,7.94
2022-07-30T04:48:01.117Z,10.92
2022-07-30T04:49:03.811Z,5.21
2022-07-30T04:50:07.179Z,8.11
2022-07-30T04:51:09.729Z,5.13
2022-07-30T04:52:12.303Z,3.38
2022-07-30T04:53:14.821Z,6.53
2022-07-30T04:54:17.430Z,5.15
2022-07-30T04:55:19.996Z,4.52
2022-07-30T04:56:24.571Z,5.76
2022-07-30T04:57:27.187Z,6.97
2022-07-30T04:58:29.807Z,11.61
2022-07-30T04:59:32.415Z,7.59
2022-07-30T05:00:40.534Z,4.71
2022-07-30T05:01:40.392Z,7.85
2022-07-30T05:02:43.698Z,5.17
2022-07-30T05:03:46.265Z,6.64
2022-07-30T05:04:48.860Z,5.64
2022-07-30T05:05:56.791Z,7.76
2022-07-30T05:06:56.805Z,5.45
2022-07-30T05:07:59.419Z,8.31
2022-07-30T05:09:02.071Z,6.56
2022-07-30T05:10:04.842Z,5.15
2022-07-30T05:11:07.406Z,8.51
2022-07-30T05:12:09.996Z,9.15
2022-07-30T05:13:13.068Z,7.54
2022-07-30T05:14:16.137Z,6.36
2022-07-30T05:15:18.805Z,7.96
2022-07-30T05:16:22.136Z,5.39
2022-07-30T05:17:24.756Z,5.21
2022-07-30T05:18:27.322Z,9.59
2022-07-30T05:19:29.818Z,4.78
2022-07-30T05:20:33.687Z,3.66
2022-07-30T05:21:36.566Z,9.09
2022-07-30T05:22:42.891Z,3.62
2022-07-30T05:23:50.233Z,5.05
2022-07-30T05:24:49.481Z,10.25
2022-07-30T05:25:51.944Z,5.69
2022-07-30T05:26:54.921Z,3.98
2022-07-30T05:27:57.592Z,3.26
2022-07-30T05:29:00.164Z,14.58
2022-07-30T05:30:03.020Z,5.23
2022-07-30T05:31:08.659Z,3.91
2022-07-30T05:32:10.623Z,5.12
2022-07-30T05:33:15.846Z,4.59
2022-07-30T05:34:17.907Z,9.30
2022-07-30T05:35:20.430Z,3.23
2022-07-30T05:36:23.347Z,1.79
2022-07-30T05:37:25.916Z,2.98
2022-07-30T05:38:28.834Z,3.55
2022-07-30T05:39:31.566Z,7.86
2022-07-30T05:40:35.480Z,6.35
2022-07-30T05:41:38.026Z,3.35
2022-07-30T05:42:40.693Z,5.61
2022-07-30T05:43:43.475Z,6.43
2022-07-30T05:44:46.032Z,5.68
2022-07-30T05:45:48.602Z,3.13
2022-07-30T05:46:51.480Z,4.87
2022-07-30T05:47:54.070Z,4.37
2022-07-30T05:48:56.964Z,3.21
2022-07-30T05:50:04.608Z,4.04
2022-07-30T05:51:04.242Z,4.94
2022-07-30T05:52:06.828Z,2.33
2022-07-30T05:53:09.356Z,3.83
2022-07-30T05:54:11.899Z,5.21
2022-07-30T05:55:14.424Z,5.88
2022-07-30T05:56:17.657Z,2.77
2022-07-30T05:57:20.320Z,2.35
2022-07-30T05:58:22.989Z,2.60
2022-07-30T05:59:25.667Z,3.31
2022-07-30T06:00:30.094Z,5.44
2022-07-30T06:01:32.799Z,4.61
2022-07-30T06:02:35.507Z,8.68
2022-07-30T06:03:38.072Z,3.77
2022-07-30T06:04:40.641Z,2.71
2022-07-30T06:05:45.056Z,2.46
2022-07-30T06:06:48.031Z,2.87
2022-07-30T06:07:50.821Z,5.29
2022-07-30T06:08:53.496Z,2.30
2022-07-30T06:09:56.043Z,5.73
2022-07-30T06:10:59.017Z,4.80
2022-07-30T06:12:01.679Z,7.63
2022-07-30T06:13:04.250Z,1.97
2022-07-30T06:14:06.725Z,3.65
2022-07-30T06:15:09.276Z,2.27
2022-07-30T06:16:12.767Z,4.72
2022-07-30T06:17:15.638Z,4.37
2022-07-30T06:18:18.265Z,4.55
2022-07-30T06:19:20.877Z,5.21
2022-07-30T06:20:25.183Z,6.28
2022-07-30T06:21:27.756Z,5.93
2022-07-30T06:22:30.239Z,3.75
2022-07-30T06:23:33.194Z,3.06
2022-07-30T06:24:35.882Z,5.12
2022-07-30T06:25:39.287Z,5.17
2022-07-30T06:26:43.359Z,4.79
2022-07-30T06:27:45.978Z,2.89
2022-07-30T06:28:48.583Z,2.23
2022-07-30T06:29:51.327Z,5.27
2022-07-30T06:30:54.398Z,3.37
2022-07-30T06:31:57.014Z,2.83
2022-07-30T06:33:00.191Z,5.31
2022-07-30T06:34:02.856Z,17.49
2022-07-30T06:35:05.528Z,7.37
2022-07-30T06:36:08.567Z,5.21
2022-07-30T06:37:13.114Z,10.41
2022-07-30T06:38:15.782Z,12.58
2022-07-30T06:39:56.282Z,10.53
2022-07-30T06:40:24.603Z,3.53
2022-07-30T06:41:27.805Z,2.41
2022-07-30T06:42:30.760Z,2.47
2022-07-30T06:43:33.741Z,1.45
2022-07-30T06:44:36.369Z,3.68
2022-07-30T06:45:38.990Z,2.69
2022-07-30T06:46:42.128Z,3.25
2022-07-30T06:47:45.955Z,4.54
2022-07-30T06:48:48.687Z,3.25
2022-07-30T06:49:51.596Z,2.50
2022-07-30T06:50:54.271Z,1.72
2022-07-30T06:51:56.944Z,5.51
2022-07-30T06:52:59.647Z,1.99
2022-07-30T06:54:02.233Z,2.77
2022-07-30T06:55:04.839Z,2.53
2022-07-30T06:56:07.939Z,5.82
2022-07-30T06:57:10.588Z,2.29
2022-07-30T06:58:13.114Z,2.11
2022-07-30T06:59:15.637Z,6.07
2022-07-30T07:00:19.212Z,3.80
2022-07-30T07:01:21.865Z,2.05
2022-07-30T07:02:24.960Z,8.74
2022-07-30T07:03:39.884Z,9.10
2022-07-30T07:04:32.465Z,1.96
2022-07-30T07:05:35.527Z,2.36
2022-07-30T07:06:38.607Z,3.17
2022-07-30T07:07:44.539Z,2.96
2022-07-30T07:08:45.793Z,6.15
2022-07-30T07:09:48.482Z,4.50
2022-07-30T07:10:52.253Z,1.57
2022-07-30T07:11:54.822Z,1.73
2022-07-30T07:12:57.389Z,4.63
2022-07-30T07:14:04.394Z,4.60
2022-07-30T07:15:04.425Z,2.86
2022-07-30T07:16:07.854Z,1.32
2022-07-30T07:17:10.553Z,4.73
2022-07-30T07:18:13.458Z,4.78
2022-07-30T07:19:16.064Z,7.40
2022-07-30T07:20:21.496Z,3.67
2022-07-30T07:21:25.908Z,4.55
2022-07-30T07:22:28.581Z,2.38
2022-07-30T07:23:39.747Z,2.77
2022-07-30T07:24:35.661Z,3.71
2022-07-30T07:25:38.323Z,5.59
2022-07-30T07:26:41.299Z,4.00
2022-07-30T07:27:43.832Z,4.10
2022-07-30T07:28:48.280Z,6.69
2022-07-30T07:30:01.684Z,3.12
2022-07-30T07:30:55.373Z,1.30
2022-07-30T07:32:06.962Z,1.98
2022-07-30T07:33:02.394Z,2.18
2022-07-30T07:34:05.006Z,2.92
2022-07-30T07:35:07.612Z,3.29
2022-07-30T07:36:11.062Z,3.56
2022-07-30T07:37:13.734Z,2.10
2022-07-30T07:38:16.382Z,3.23
2022-07-30T07:39:18.939Z,3.07
2022-07-30T07:40:22.166Z,2.92
2022-07-30T07:41:26.666Z,2.22
2022-07-30T07:42:29.329Z,2.85
2022-07-30T07:43:32.309Z,5.83
2022-07-30T07:44:34.829Z,2.01
2022-07-30T07:45:37.548Z,2.82
2022-07-30T07:46:40.427Z,13.16
2022-07-30T07:47:43.093Z,1.82
2022-07-30T07:48:47.561Z,1.89
2022-07-30T07:49:50.478Z,2.41
2022-07-30T07:50:55.953Z,4.14
2022-07-30T07:51:57.979Z,3.98
2022-07-30T07:53:00.537Z,2.87
2022-07-30T07:54:20.523Z,1.59
2022-07-30T07:55:07.708Z,3.41
2022-07-30T07:56:11.857Z,8.94
2022-07-30T07:57:15.915Z,5.95
2022-07-30T07:58:25.334Z,2.21
2022-07-30T07:59:22.958Z,3.85
2022-07-30T08:00:27.328Z,2.02
2022-07-30T08:01:30.330Z,4.49
2022-07-30T08:02:33.594Z,2.85
2022-07-30T08:03:36.229Z,1.75
2022-07-30T08:04:38.904Z,2.11
2022-07-30T08:06:01.747Z,2.67
2022-07-30T08:06:46.289Z,3.07
2022-07-30T08:07:48.877Z,3.87
2022-07-30T08:08:51.826Z,5.60
2022-07-30T08:09:54.398Z,1.99
2022-07-30T08:10:57.022Z,2.89
2022-07-30T08:11:59.658Z,2.93
2022-07-30T08:13:03.019Z,4.13
2022-07-30T08:14:05.692Z,5.25
2022-07-30T08:15:08.270Z,4.33
2022-07-30T08:16:11.641Z,4.64
2022-07-30T08:17:15.652Z,2.88
2022-07-30T08:18:18.513Z,20.64
2022-07-30T08:19:21.079Z,6.73
2022-07-30T08:20:25.396Z,16.04
2022-07-30T08:21:28.467Z,4.02
2022-07-30T08:22:31.245Z,8.40
2022-07-30T08:23:33.912Z,4.46
2022-07-30T08:24:36.479Z,4.90
2022-07-30T08:25:39.083Z,2.65
2022-07-30T08:26:43.148Z,6.53
2022-07-30T08:27:46.432Z,3.84
2022-07-30T08:28:49.200Z,2.09
2022-07-30T08:29:53.466Z,3.41
2022-07-30T08:30:59.136Z,3.66
2022-07-30T08:32:01.097Z,1.74
2022-07-30T08:33:04.179Z,2.92
2022-07-30T08:34:07.722Z,3.21
2022-07-30T08:35:10.294Z,13.03
2022-07-30T08:36:13.376Z,5.30
2022-07-30T08:37:15.980Z,6.68
2022-07-30T08:38:18.489Z,4.53
2022-07-30T08:39:21.426Z,2.42
2022-07-30T08:40:24.414Z,4.28
2022-07-30T08:41:27.339Z,3.07
2022-07-30T08:42:30.354Z,3.16
2022-07-30T08:43:33.329Z,3.85
2022-07-30T08:44:36.002Z,1.68
2022-07-30T08:45:38.568Z,3.12
2022-07-30T08:46:42.510Z,3.29
2022-07-30T08:47:47.035Z,3.55
2022-07-30T08:49:52.225Z,2.67
2022-07-30T08:50:55.393Z,2.19
2022-07-30T08:51:57.978Z,2.23
2022-07-30T08:53:00.632Z,2.72
2022-07-30T08:54:03.197Z,3.68
2022-07-30T08:55:05.719Z,2.31
2022-07-30T08:56:08.735Z,10.99
2022-07-30T08:57:11.274Z,7.20
2022-07-30T08:58:13.871Z,4.83
2022-07-30T08:59:18.382Z,2.27
2022-07-30T09:00:21.974Z,4.08
2022-07-30T09:01:24.543Z,2.50
2022-07-30T09:02:29.293Z,7.27
2022-07-30T09:03:31.940Z,1.96
2022-07-30T09:04:34.801Z,2.95
2022-07-30T09:05:37.367Z,2.43
2022-07-30T09:06:40.343Z,2.84
2022-07-30T09:07:42.940Z,3.32
2022-07-30T09:08:45.578Z,2.71
2022-07-30T09:09:48.247Z,3.47
2022-07-30T09:10:53.350Z,2.14
2022-07-30T09:11:55.637Z,22.35
2022-07-30T09:12:58.312Z,5.40
2022-07-30T09:14:00.872Z,5.53
2022-07-30T09:15:03.908Z,11.18
2022-07-30T09:16:06.796Z,2.69
2022-07-30T09:17:09.495Z,3.51
2022-07-30T09:18:12.066Z,4.95
2022-07-30T09:19:14.547Z,2.25
2022-07-30T09:20:17.925Z,4.28
2022-07-30T09:21:21.090Z,1.77
2022-07-30T09:22:24.027Z,10.93
2022-07-30T09:23:26.735Z,5.47
2022-07-30T09:24:29.352Z,5.65
2022-07-30T09:25:32.280Z,3.28
2022-07-30T09:26:35.676Z,10.51
2022-07-30T09:27:38.340Z,3.81
2022-07-30T09:28:41.005Z,21.59
2022-07-30T09:29:43.577Z,2.35
2022-07-30T09:30:46.309Z,2.65
2022-07-30T09:31:49.026Z,3.03
2022-07-30T09:32:51.581Z,2.95
2022-07-30T09:33:54.107Z,7.61
2022-07-30T09:34:57.127Z,3.72
2022-07-30T09:35:59.692Z,3.31
2022-07-30T09:37:02.668Z,3.60
2022-07-30T09:38:06.653Z,3.79
2022-07-30T09:39:09.547Z,4.67
2022-07-30T09:40:12.785Z,2.43
2022-07-30T09:41:36.330Z,4.46
2022-07-30T09:42:20.315Z,2.59
2022-07-30T09:43:27.462Z,3.23
2022-07-30T09:44:27.399Z,3.78
2022-07-30T09:45:35.078Z,4.35
2022-07-30T09:46:36.217Z,2.51
2022-07-30T09:47:38.789Z,2.96
2022-07-30T09:48:41.405Z,4.54
2022-07-30T09:49:44.021Z,6.70
2022-07-30T09:50:50.150Z,8.92
2022-07-30T09:51:54.773Z,2.72
2022-07-30T09:52:57.383Z,13.37
2022-07-30T09:54:00.335Z,12.84
2022-07-30T09:55:03.577Z,2.56
2022-07-30T09:56:06.895Z,4.18
2022-07-30T09:57:15.918Z,5.06
2022-07-30T09:58:21.623Z,7.48
2022-07-30T09:59:19.656Z,2.97
2022-07-30T10:00:24.381Z,3.53
2022-07-30T10:01:49.882Z,4.07
2022-07-30T10:02:32.527Z,2.52
2022-07-30T10:03:41.978Z,3.52
2022-07-30T10:04:40.509Z,4.04
2022-07-30T10:05:43.304Z,3.87
2022-07-30T10:06:46.651Z,3.87
2022-07-30T10:07:51.479Z,2.26
2022-07-30T10:08:55.547Z,4.86
2022-07-30T10:09:58.294Z,4.78
2022-07-30T10:11:05.141Z,1.61
2022-07-30T10:12:10.716Z,2.09
2022-07-30T10:13:10.856Z,5.45
2022-07-30T10:14:15.419Z,5.00
2022-07-30T10:15:17.980Z,3.04
2022-07-30T10:16:23.809Z,4.17
2022-07-30T10:17:26.813Z,2.51
2022-07-30T10:18:31.220Z,2.90
2022-07-30T10:19:39.899Z,7.89
2022-07-30T10:20:38.800Z,8.38
2022-07-30T10:21:44.264Z,3.87
2022-07-30T10:22:47.684Z,22.10
2022-07-30T10:23:51.311Z,7.76
2022-07-30T10:24:53.879Z,2.63
2022-07-30T10:25:56.855Z,3.19
2022-07-30T10:26:59.933Z,4.28
2022-07-30T10:28:03.333Z,10.06
2022-07-30T10:29:05.990Z,3.02
2022-07-30T10:30:13.835Z,6.04
2022-07-30T10:31:48.412Z,4.57
2022-07-30T10:32:19.740Z,2.95
2022-07-30T10:33:36.280Z,3.56
2022-07-30T10:34:32.559Z,16.23
2022-07-30T10:35:38.100Z,3.76
2022-07-30T10:36:38.091Z,2.92
2022-07-30T10:37:40.675Z,7.83
2022-07-30T10:38:43.532Z,7.70
2022-07-30T10:39:47.430Z,2.21
2022-07-30T10:40:50.461Z,4.62
2022-07-30T10:41:54.713Z,1.85
2022-07-30T10:42:57.585Z,1.54
2022-07-30T10:44:00.256Z,4.13
2022-07-30T10:45:02.826Z,3.52
2022-07-30T10:46:09.287Z,3.12
2022-07-30T10:47:12.218Z,2.20
2022-07-30T10:48:15.155Z,3.22
2022-07-30T10:49:19.146Z,2.72
2022-07-30T10:50:23.131Z,4.24
2022-07-30T10:51:34.449Z,2.66
2022-07-30T10:52:30.212Z,3.46
2022-07-30T10:53:32.762Z,4.94
2022-07-30T10:54:39.251Z,16.59
2022-07-30T10:55:39.757Z,2.95
2022-07-30T10:56:42.692Z,5.21
2022-07-30T10:57:47.247Z,3.88
2022-07-30T10:58:49.817Z,3.30
2022-07-30T10:59:54.328Z,4.11
2022-07-30T11:00:57.773Z,7.42
2022-07-30T11:02:00.821Z,2.74
2022-07-30T11:03:11.808Z,4.39
2022-07-30T11:04:10.022Z,1.92
2022-07-30T11:05:13.206Z,2.11
2022-07-30T11:06:24.034Z,2.59
2022-07-30T11:07:23.457Z,3.43
2022-07-30T11:08:26.427Z,4.96
2022-07-30T11:09:30.795Z,3.15
2022-07-30T11:10:35.859Z,3.48
2022-07-30T11:12:01.921Z,3.63
2022-07-30T11:12:44.108Z,3.86
2022-07-30T11:13:47.564Z,2.90
2022-07-30T11:14:51.457Z,3.54
2022-07-30T11:15:54.086Z,2.57
2022-07-30T11:16:56.805Z,2.34
2022-07-30T11:17:59.826Z,8.88
2022-07-30T11:19:27.299Z,7.85
2022-07-30T11:20:07.476Z,3.47
2022-07-30T11:21:13.576Z,2.23
2022-07-30T11:22:16.284Z,3.63
2022-07-30T11:23:19.290Z,4.67
2022-07-30T11:24:22.282Z,4.24
2022-07-30T11:25:25.212Z,4.15
2022-07-30T11:26:30.958Z,11.59
2022-07-30T11:27:36.072Z,7.49
2022-07-30T11:28:38.795Z,2.99
2022-07-30T11:29:51.220Z,3.05
2022-07-30T11:30:46.137Z,2.41
2022-07-30T11:31:56.639Z,3.66
2022-07-30T11:32:56.214Z,2.73
2022-07-30T11:33:59.472Z,2.17
2022-07-30T11:35:03.372Z,3.89
2022-07-30T11:36:06.962Z,2.38
2022-07-30T11:37:18.640Z,2.94
2022-07-30T11:38:14.101Z,2.21
2022-07-30T11:39:16.830Z,4.85
2022-07-30T11:40:25.903Z,4.44
2022-07-30T11:41:24.815Z,5.72
2022-07-30T11:42:27.483Z,4.69
2022-07-30T11:43:35.626Z,2.64
2022-07-30T11:44:35.377Z,2.37
2022-07-30T11:45:37.944Z,6.22
2022-07-30T11:46:41.333Z,2.74
2022-07-30T11:47:44.923Z,6.42
2022-07-30T11:48:47.614Z,4.73
2022-07-30T11:49:50.572Z,6.20
2022-07-30T11:50:54.175Z,5.97
2022-07-30T11:51:57.135Z,3.62
2022-07-30T11:52:59.708Z,2.91
2022-07-30T11:54:02.376Z,2.28
2022-07-30T11:55:05.758Z,3.03
2022-07-30T11:56:09.348Z,2.14
2022-07-30T11:57:13.760Z,3.49
2022-07-30T11:58:16.326Z,4.27
2022-07-30T11:59:18.891Z,3.37
2022-07-30T12:00:22.792Z,2.70
2022-07-30T12:01:27.202Z,5.13
2022-07-30T12:02:29.975Z,3.78
2022-07-30T12:03:32.501Z,3.71
2022-07-30T12:04:35.108Z,2.90
2022-07-30T12:05:38.016Z,8.89
2022-07-30T12:06:40.815Z,2.56
2022-07-30T12:07:43.586Z,2.37
2022-07-30T12:08:46.192Z,2.51
2022-07-30T12:09:48.682Z,6.41
2022-07-30T12:10:51.657Z,5.21
2022-07-30T12:11:54.206Z,5.73
2022-07-30T12:12:56.868Z,3.48
2022-07-30T12:13:59.419Z,5.59
2022-07-30T12:15:02.245Z,2.56
2022-07-30T12:16:04.980Z,3.06
2022-07-30T12:17:15.088Z,5.89
2022-07-30T12:18:25.712Z,3.48
2022-07-30T12:19:16.468Z,3.51
2022-07-30T12:20:20.776Z,2.89
2022-07-30T12:21:23.375Z,5.27
2022-07-30T12:22:26.320Z,5.11
2022-07-30T12:23:28.915Z,3.29
2022-07-30T12:24:31.863Z,1.67
2022-07-30T12:25:34.427Z,2.63
2022-07-30T12:26:37.203Z,5.28
2022-07-30T12:27:39.936Z,2.43
2022-07-30T12:28:42.544Z,5.03
2022-07-30T12:29:45.220Z,1.56
2022-07-30T12:30:48.200Z,2.39
2022-07-30T12:31:50.856Z,7.46
2022-07-30T12:32:53.632Z,5.43
2022-07-30T12:33:58.913Z,3.74
2022-07-30T12:35:00.707Z,4.85
2022-07-30T12:36:03.689Z,5.20
2022-07-30T12:37:06.252Z,2.60
2022-07-30T12:38:08.830Z,3.61
2022-07-30T12:39:11.489Z,3.71
2022-07-30T12:40:15.268Z,5.32
2022-07-30T12:41:18.261Z,4.57
2022-07-30T12:42:20.829Z,6.55
2022-07-30T12:43:23.623Z,3.15
2022-07-30T12:44:26.169Z,2.99
2022-07-30T12:45:28.743Z,5.68
2022-07-30T12:46:33.250Z,1.79
2022-07-30T12:47:35.813Z,2.26
2022-07-30T12:48:38.540Z,14.32
2022-07-30T12:49:49.408Z,8.95
2022-07-30T12:50:46.070Z,13.92
2022-07-30T12:51:48.636Z,13.47
2022-07-30T12:52:51.204Z,8.77
2022-07-30T12:53:53.739Z,5.80
2022-07-30T12:54:56.230Z,4.53
2022-07-30T12:55:58.808Z,4.86
2022-07-30T12:57:02.206Z,4.97
2022-07-30T12:58:08.444Z,6.61
2022-07-30T12:59:09.995Z,3.71
2022-07-30T13:00:14.496Z,6.51
2022-07-30T13:01:17.342Z,6.33
2022-07-30T13:02:20.247Z,11.15
2022-07-30T13:03:24.813Z,6.82
2022-07-30T13:04:27.527Z,6.83
2022-07-30T13:05:30.097Z,2.52
2022-07-30T13:06:33.620Z,4.44
2022-07-30T13:07:36.167Z,7.61
2022-07-30T13:08:38.722Z,6.77
2022-07-30T13:09:41.383Z,3.39
2022-07-30T13:10:44.373Z,4.01
2022-07-30T13:11:48.993Z,7.25
2022-07-30T13:12:51.543Z,5.59
2022-07-30T13:13:54.116Z,3.96
2022-07-30T13:14:56.597Z,3.45
2022-07-30T13:15:59.143Z,5.81
2022-07-30T13:17:02.363Z,4.93
2022-07-30T13:18:06.763Z,10.86
2022-07-30T13:19:09.309Z,12.45
2022-07-30T13:20:13.816Z,6.07
2022-07-30T13:21:16.594Z,5.90
2022-07-30T13:22:19.769Z,14.73
2022-07-30T13:23:22.540Z,12.07
2022-07-30T13:24:25.208Z,4.33
2022-07-30T13:25:27.771Z,6.87
2022-07-30T13:26:32.593Z,5.55
2022-07-30T13:27:35.162Z,8.49
2022-07-30T13:28:38.243Z,3.58
2022-07-30T13:29:41.009Z,5.31
2022-07-30T13:30:43.781Z,6.73
2022-07-30T13:31:46.352Z,4.94
2022-07-30T13:32:49.023Z,6.15
2022-07-30T13:33:51.715Z,6.47
2022-07-30T13:34:56.617Z,5.53
2022-07-30T13:35:58.766Z,6.06
2022-07-30T13:37:02.048Z,10.67
2022-07-30T13:38:05.127Z,6.61
2022-07-30T13:39:07.694Z,7.15
2022-07-30T13:40:11.356Z,7.03
2022-07-30T13:41:14.363Z,3.20
2022-07-30T13:42:16.931Z,4.08
2022-07-30T13:43:19.542Z,3.49
2022-07-30T13:44:22.064Z,5.05
2022-07-30T13:45:24.631Z,2.99
2022-07-30T13:46:28.018Z,6.59
2022-07-30T13:47:30.591Z,2.89
2022-07-30T13:48:33.259Z,3.10
2022-07-30T13:49:35.954Z,6.43
2022-07-30T13:50:39.003Z,2.31
2022-07-30T13:51:41.567Z,8.29
2022-07-30T13:52:44.137Z,5.21
2022-07-30T13:53:46.831Z,9.96
2022-07-30T13:54:49.431Z,11.25
2022-07-30T13:55:52.040Z,5.30